createdAt,value
2018-09-10T00:01:00.630Z,17.50
2018-09-10T00:03:29.111Z,17.50
2018-09-10T00:05:58.006Z,17.50
2018-09-10T00:08:26.783Z,17.60
2018-09-10T00:10:55.347Z,17.60
2018-09-10T00:13:23.847Z,17.60
2018-09-10T00:15:52.435Z,17.70
2018-09-10T00:18:21.151Z,17.70
2018-09-10T00:20:49.624Z,17.70
2018-09-10T00:23:18.282Z,17.80
2018-09-10T00:25:46.803Z,17.80
2018-09-10T00:28:15.291Z,17.80
2018-09-10T00:30:44.107Z,17.80
2018-09-10T00:33:12.626Z,17.80
2018-09-10T00:35:41.178Z,17.80
2018-09-10T00:38:09.683Z,17.90
2018-09-10T00:40:38.131Z,17.90
2018-09-10T00:43:06.830Z,17.90
2018-09-10T00:45:35.466Z,17.90
2018-09-10T00:48:04.087Z,17.90
2018-09-10T00:50:32.826Z,17.90
2018-09-10T00:53:01.354Z,17.90
2018-09-10T00:55:29.907Z,17.90
2018-09-10T00:57:58.361Z,17.90
2018-09-10T01:00:26.868Z,17.90
2018-09-10T01:02:55.395Z,17.90
2018-09-10T01:05:23.948Z,17.90
2018-09-10T01:07:52.590Z,17.90
2018-09-10T01:10:21.098Z,17.90
2018-09-10T01:12:49.754Z,17.90
2018-09-10T01:15:18.435Z,17.90
2018-09-10T01:17:46.884Z,17.80
2018-09-10T01:20:15.459Z,17.90
2018-09-10T01:22:44.126Z,17.90
2018-09-10T01:25:12.682Z,17.90
2018-09-10T01:27:41.286Z,17.90
2018-09-10T01:30:10.036Z,17.90
2018-09-10T01:32:38.795Z,17.90
2018-09-10T01:35:08.110Z,17.80
2018-09-10T01:37:36.987Z,17.80
2018-09-10T01:40:05.701Z,17.80
2018-09-10T01:42:34.205Z,17.80
2018-09-10T01:45:03.186Z,17.80
2018-09-10T01:47:31.712Z,17.80
2018-09-10T01:50:00.187Z,17.80
2018-09-10T01:52:29.419Z,17.90
2018-09-10T01:54:58.110Z,17.80
2018-09-10T01:57:26.943Z,17.80
2018-09-10T01:59:55.403Z,17.90
2018-09-10T02:02:23.907Z,17.80
2018-09-10T02:04:52.475Z,17.80
2018-09-10T02:07:21.071Z,17.90
2018-09-10T02:09:49.890Z,17.90
2018-09-10T02:12:25.314Z,17.90
2018-09-10T02:14:55.360Z,17.90
2018-09-10T02:17:24.522Z,17.90
2018-09-10T02:19:53.172Z,17.90
2018-09-10T02:22:22.111Z,17.90
2018-09-10T02:24:50.929Z,17.90
2018-09-10T02:27:19.500Z,17.90
2018-09-10T02:29:48.081Z,17.90
2018-09-10T02:32:16.674Z,17.90
2018-09-10T02:34:45.431Z,17.90
2018-09-10T02:37:14.014Z,17.90
2018-09-10T02:39:42.547Z,17.90
2018-09-10T02:42:11.357Z,17.90
2018-09-10T02:44:40.102Z,17.80
2018-09-10T02:47:08.579Z,17.80
2018-09-10T02:49:37.122Z,17.80
2018-09-10T02:52:05.743Z,17.70
2018-09-10T02:54:34.449Z,17.70
2018-09-10T02:57:03.358Z,17.70
2018-09-10T02:59:31.886Z,17.70
2018-09-10T03:02:00.467Z,17.70
2018-09-10T03:04:29.050Z,17.80
2018-09-10T03:06:57.704Z,17.80
2018-09-10T03:09:26.191Z,17.90
2018-09-10T03:11:54.814Z,17.90
2018-09-10T03:14:23.390Z,18.00
2018-09-10T03:16:51.888Z,18.00
2018-09-10T03:19:20.340Z,18.00
2018-09-10T03:21:48.889Z,18.10
2018-09-10T03:24:17.547Z,18.10
2018-09-10T03:26:46.024Z,18.10
2018-09-10T03:29:14.807Z,18.10
2018-09-10T03:31:43.282Z,18.20
2018-09-10T03:34:11.779Z,18.20
2018-09-10T03:36:40.377Z,18.20
2018-09-10T03:39:10.214Z,18.20
2018-09-10T03:41:38.906Z,18.20
2018-09-10T03:44:07.775Z,18.20
2018-09-10T03:46:36.575Z,18.20
2018-09-10T03:49:05.310Z,18.20
2018-09-10T03:51:34.064Z,18.10
2018-09-10T03:54:02.823Z,18.10
2018-09-10T03:56:31.846Z,18.10
2018-09-10T03:59:00.435Z,18.10
2018-09-10T04:01:28.926Z,18.10
2018-09-10T04:03:57.402Z,18.10
2018-09-10T04:06:25.886Z,18.10
2018-09-10T04:08:54.642Z,18.10
2018-09-10T04:11:23.143Z,18.20
2018-09-10T04:13:51.693Z,18.20
2018-09-10T04:16:20.220Z,18.20
2018-09-10T04:18:49.221Z,18.20
2018-09-10T04:21:17.763Z,18.20
2018-09-10T04:23:46.302Z,18.20
2018-09-10T04:26:14.955Z,18.20
2018-09-10T04:28:43.547Z,18.20
2018-09-10T04:31:12.436Z,18.10
2018-09-10T04:33:41.081Z,18.10
2018-09-10T04:36:09.701Z,18.10
2018-09-10T04:38:38.269Z,18.10
2018-09-10T04:41:06.799Z,18.00
2018-09-10T04:43:35.339Z,18.00
2018-09-10T04:46:03.834Z,18.00
2018-09-10T04:48:32.435Z,18.00
2018-09-10T04:51:00.960Z,18.00
2018-09-10T04:53:29.438Z,17.90
2018-09-10T04:55:58.295Z,17.90
2018-09-10T04:58:26.842Z,17.80
2018-09-10T05:00:55.315Z,17.80
2018-09-10T05:03:24.171Z,17.80
2018-09-10T05:05:52.673Z,17.80
2018-09-10T05:08:21.203Z,17.70
2018-09-10T05:10:49.691Z,17.70
2018-09-10T05:13:18.183Z,17.70
2018-09-10T05:15:46.679Z,17.60
2018-09-10T05:18:15.303Z,17.60
2018-09-10T05:20:43.862Z,17.50
2018-09-10T05:23:12.647Z,17.50
2018-09-10T05:25:41.336Z,17.50
2018-09-10T05:28:09.881Z,17.50
2018-09-10T05:30:38.320Z,17.40
2018-09-10T05:33:06.827Z,17.40
2018-09-10T05:35:35.556Z,17.40
2018-09-10T05:38:04.031Z,17.40
2018-09-10T05:40:32.651Z,17.40
2018-09-10T05:43:01.129Z,17.30
2018-09-10T05:45:29.737Z,17.30
2018-09-10T05:47:58.213Z,17.30
2018-09-10T05:50:26.920Z,17.20
2018-09-10T05:52:55.447Z,17.20
2018-09-10T05:55:24.005Z,17.20
2018-09-10T05:57:52.440Z,17.20
2018-09-10T06:00:20.951Z,17.20
2018-09-10T06:02:49.691Z,17.10
2018-09-10T06:05:18.254Z,17.10
2018-09-10T06:07:46.927Z,17.20
2018-09-10T06:10:15.465Z,17.10
2018-09-10T06:12:43.996Z,17.10
2018-09-10T06:15:12.564Z,17.10
2018-09-10T06:17:41.194Z,17.00
2018-09-10T06:20:09.671Z,17.00
2018-09-10T06:22:38.286Z,17.00
2018-09-10T06:25:06.867Z,17.00
2018-09-10T06:27:35.498Z,17.00
2018-09-10T06:30:04.139Z,17.10
2018-09-10T06:32:32.714Z,17.00
2018-09-10T06:35:01.323Z,17.00
2018-09-10T06:37:29.919Z,17.00
2018-09-10T06:39:59.372Z,17.00
2018-09-10T06:42:28.430Z,17.00
2018-09-10T06:44:57.015Z,17.00
2018-09-10T06:47:25.499Z,17.00
2018-09-10T06:49:54.082Z,17.10
2018-09-10T06:52:22.831Z,17.00
2018-09-10T06:54:51.315Z,17.10
2018-09-10T06:57:20.023Z,17.10
2018-09-10T06:59:48.519Z,17.10
2018-09-10T07:02:17.185Z,17.20
2018-09-10T07:04:45.691Z,17.20
2018-09-10T07:07:14.409Z,17.20
2018-09-10T07:09:43.237Z,17.20
2018-09-10T07:12:11.807Z,17.20
2018-09-10T07:14:40.423Z,17.20
2018-09-10T07:17:08.876Z,17.30
2018-09-10T07:19:37.338Z,17.30
2018-09-10T07:22:05.897Z,17.40
2018-09-10T07:24:34.478Z,17.40
2018-09-10T07:27:02.982Z,17.40
2018-09-10T07:29:31.706Z,17.50
2018-09-10T07:32:00.297Z,17.50
2018-09-10T07:34:28.771Z,17.60
2018-09-10T07:36:57.467Z,17.60
2018-09-10T07:39:25.975Z,17.60
2018-09-10T07:41:54.690Z,17.60
2018-09-10T07:44:23.195Z,17.70
2018-09-10T07:46:51.825Z,17.70
2018-09-10T07:49:20.550Z,17.70
2018-09-10T07:51:49.314Z,17.70
2018-09-10T07:54:17.879Z,17.90
2018-09-10T07:56:46.360Z,18.10
2018-09-10T07:59:14.951Z,18.10
2018-09-10T08:01:43.480Z,18.10
2018-09-10T08:04:11.945Z,18.10
2018-09-10T08:06:40.443Z,18.20
2018-09-10T08:09:10.002Z,18.30
2018-09-10T08:11:38.664Z,18.50
2018-09-10T08:14:07.632Z,18.60
2018-09-10T08:16:36.427Z,18.60
2018-09-10T08:19:05.145Z,18.70
2018-09-10T08:21:33.775Z,18.70
2018-09-10T08:24:02.357Z,18.80
2018-09-10T08:26:30.882Z,18.80
2018-09-10T08:28:59.490Z,18.80
2018-09-10T08:31:28.199Z,18.80
2018-09-10T08:33:57.045Z,18.80
2018-09-10T08:36:25.570Z,18.70
2018-09-10T08:38:54.178Z,18.70
2018-09-10T08:41:22.698Z,18.70
2018-09-10T08:43:51.314Z,18.80
2018-09-10T08:46:19.960Z,18.90
2018-09-10T08:48:48.475Z,18.90
2018-09-10T08:51:17.100Z,18.90
2018-09-10T08:53:45.934Z,18.90
2018-09-10T08:56:14.661Z,18.90
2018-09-10T08:58:42.923Z,18.80
2018-09-10T09:01:11.394Z,18.80
2018-09-10T09:03:39.930Z,18.80
2018-09-10T09:06:08.759Z,18.80
2018-09-10T09:08:37.317Z,18.80
2018-09-10T09:11:05.922Z,18.80
2018-09-10T09:13:34.442Z,18.80
2018-09-10T09:16:03.063Z,18.80
2018-09-10T09:18:31.667Z,18.80
2018-09-10T09:21:00.156Z,18.80
2018-09-10T09:23:28.926Z,18.80
2018-09-10T09:25:57.430Z,18.80
2018-09-10T09:28:26.011Z,18.80
2018-09-10T09:30:54.532Z,18.80
2018-09-10T09:33:23.019Z,18.80
2018-09-10T09:35:56.834Z,18.90
2018-09-10T09:38:30.962Z,18.90
2018-09-10T09:41:04.908Z,18.90
2018-09-10T09:43:38.938Z,18.90
2018-09-10T09:46:10.979Z,19.00
2018-09-10T09:48:39.466Z,19.00
2018-09-10T09:51:08.051Z,19.00
2018-09-10T09:53:37.278Z,19.00
2018-09-10T09:56:05.867Z,19.00
2018-09-10T09:58:34.480Z,19.10
2018-09-10T10:01:08.403Z,19.10
2018-09-10T10:03:56.711Z,19.20
2018-09-10T10:06:25.880Z,19.30
2018-09-10T10:08:54.371Z,19.30
2018-09-10T10:11:23.026Z,19.30
2018-09-10T10:13:51.699Z,19.30
2018-09-10T10:16:20.262Z,19.40
2018-09-10T10:18:48.827Z,19.40
2018-09-10T10:21:17.439Z,19.40
2018-09-10T10:23:45.911Z,19.40
2018-09-10T10:26:14.388Z,19.40
2018-09-10T10:28:42.999Z,19.50
2018-09-10T10:31:11.475Z,19.50
2018-09-10T10:33:40.175Z,19.50
2018-09-10T10:36:08.751Z,19.50
2018-09-10T10:38:37.239Z,19.50
2018-09-10T10:41:06.061Z,19.50
2018-09-10T10:43:34.547Z,19.50
2018-09-10T10:46:03.356Z,19.50
2018-09-10T10:48:31.946Z,19.50
2018-09-10T10:51:00.445Z,19.60
2018-09-10T10:53:29.080Z,19.60
2018-09-10T10:55:57.935Z,19.60
2018-09-10T10:58:26.594Z,19.70
2018-09-10T11:00:55.192Z,19.80
2018-09-10T11:03:23.871Z,19.80
2018-09-10T11:05:52.416Z,19.80
2018-09-10T11:08:21.056Z,19.80
2018-09-10T11:10:49.606Z,19.80
2018-09-10T11:13:18.150Z,19.80
2018-09-10T11:15:46.706Z,19.70
2018-09-10T11:18:15.410Z,19.70
2018-09-10T11:20:43.991Z,19.70
2018-09-10T11:23:12.634Z,19.70
2018-09-10T11:25:41.124Z,19.70
2018-09-10T11:28:09.642Z,19.80
2018-09-10T11:30:38.372Z,19.70
2018-09-10T11:33:06.891Z,19.70
2018-09-10T11:35:35.844Z,19.70
2018-09-10T11:38:04.308Z,19.80
2018-09-10T11:40:33.034Z,19.70
2018-09-10T11:43:01.610Z,19.70
2018-09-10T11:45:30.182Z,19.80
2018-09-10T11:47:58.812Z,19.80
2018-09-10T11:50:27.324Z,19.80
2018-09-10T11:52:56.039Z,19.80
2018-09-10T11:55:24.557Z,19.80
2018-09-10T11:57:53.220Z,19.80
2018-09-10T12:00:21.686Z,19.80
2018-09-10T12:02:50.247Z,19.80
2018-09-10T12:05:18.973Z,19.80
2018-09-10T12:07:47.518Z,19.80
2018-09-10T12:10:16.075Z,19.80
2018-09-10T12:12:44.602Z,19.70
2018-09-10T12:15:13.180Z,19.70
2018-09-10T12:17:41.856Z,19.70
2018-09-10T12:20:10.574Z,19.70
2018-09-10T12:22:39.315Z,19.70
2018-09-10T12:25:07.963Z,19.70
2018-09-10T12:27:36.654Z,19.70
2018-09-10T12:30:05.629Z,19.70
2018-09-10T12:32:34.328Z,19.70
2018-09-10T12:35:03.086Z,19.70
2018-09-10T12:37:31.738Z,19.80
2018-09-10T12:40:00.238Z,19.80
2018-09-10T12:42:28.751Z,19.80
2018-09-10T12:44:57.390Z,19.80
2018-09-10T12:47:25.928Z,19.80
2018-09-10T12:49:54.548Z,19.80
2018-09-10T12:52:23.180Z,19.80
2018-09-10T12:54:51.656Z,19.80
2018-09-10T12:57:20.287Z,19.80
2018-09-10T12:59:48.943Z,19.80
2018-09-10T13:02:17.543Z,19.80
2018-09-10T13:04:46.104Z,19.80
2018-09-10T13:07:14.751Z,19.80
2018-09-10T13:09:43.257Z,19.80
2018-09-10T13:12:11.803Z,19.80
2018-09-10T13:14:40.379Z,19.80
2018-09-10T13:17:08.991Z,19.80
2018-09-10T13:19:37.682Z,19.80
2018-09-10T13:22:06.247Z,19.80
2018-09-10T13:24:34.812Z,19.80
2018-09-10T13:27:03.478Z,19.80
2018-09-10T13:29:31.989Z,19.80
2018-09-10T13:32:00.636Z,19.80
2018-09-10T13:34:29.172Z,19.90
2018-09-10T13:36:57.743Z,19.90
2018-09-10T13:39:26.426Z,19.90
2018-09-10T13:41:55.079Z,19.90
2018-09-10T13:44:23.591Z,19.90
2018-09-10T13:46:52.091Z,19.90
2018-09-10T13:49:20.780Z,19.90
2018-09-10T13:51:49.334Z,19.90
2018-09-10T13:54:18.269Z,19.80
2018-09-10T13:56:46.775Z,19.90
2018-09-10T13:59:15.376Z,19.90
2018-09-10T14:01:44.063Z,19.90
2018-09-10T14:04:12.747Z,19.90
2018-09-10T14:06:41.284Z,19.90
2018-09-10T14:09:09.790Z,20.00
2018-09-10T14:11:38.667Z,20.00
2018-09-10T14:14:07.705Z,20.00
2018-09-10T14:16:36.487Z,19.90
2018-09-10T14:19:05.358Z,19.90
2018-09-10T14:21:33.963Z,19.90
2018-09-10T14:24:02.463Z,19.90
2018-09-10T14:26:31.100Z,19.90
2018-09-10T14:28:59.765Z,19.90
2018-09-10T14:31:28.352Z,19.90
2018-09-10T14:33:57.046Z,19.90
2018-09-10T14:36:25.610Z,19.90
2018-09-10T14:38:54.340Z,20.00
2018-09-10T14:41:22.899Z,20.00
2018-09-10T14:43:51.727Z,20.00
2018-09-10T14:46:20.226Z,20.00
2018-09-10T14:48:48.915Z,20.00
2018-09-10T14:51:17.471Z,20.00
2018-09-10T14:53:46.009Z,20.00
2018-09-10T14:56:14.664Z,20.00
2018-09-10T14:58:43.224Z,20.00
2018-09-10T15:01:11.795Z,20.00
2018-09-10T15:03:40.365Z,20.00
2018-09-10T15:06:09.154Z,19.90
2018-09-10T15:08:37.994Z,19.90
2018-09-10T15:11:06.679Z,19.90
2018-09-10T15:13:35.451Z,19.90
2018-09-10T15:16:04.028Z,19.90
2018-09-10T15:18:33.121Z,19.90
2018-09-10T15:21:01.555Z,19.90
2018-09-10T15:23:30.124Z,19.90
2018-09-10T15:25:58.790Z,19.80
2018-09-10T15:28:27.310Z,19.80
2018-09-10T15:30:55.840Z,19.80
2018-09-10T15:33:24.561Z,19.80
2018-09-10T15:35:53.109Z,19.80
2018-09-10T15:38:21.728Z,19.80
2018-09-10T15:40:50.406Z,19.80
2018-09-10T15:43:19.132Z,19.80
2018-09-10T15:45:47.852Z,19.70
2018-09-10T15:48:16.505Z,19.70
2018-09-10T15:50:45.323Z,19.70
2018-09-10T15:53:13.857Z,19.70
2018-09-10T15:55:42.331Z,19.70
2018-09-10T15:58:10.938Z,19.70
2018-09-10T16:00:39.626Z,19.70
2018-09-10T16:03:08.254Z,19.70
2018-09-10T16:05:36.875Z,19.70
2018-09-10T16:08:05.541Z,19.70
2018-09-10T16:10:34.276Z,19.70
2018-09-10T16:13:03.076Z,19.70
2018-09-10T16:15:31.819Z,19.70
2018-09-10T16:18:00.460Z,19.70
2018-09-10T16:20:28.983Z,19.70
2018-09-10T16:22:57.586Z,19.60
2018-09-10T16:25:26.100Z,19.60
2018-09-10T16:27:54.623Z,19.60
2018-09-10T16:30:23.414Z,19.60
2018-09-10T16:32:52.080Z,19.60
2018-09-10T16:35:21.030Z,19.60
2018-09-10T16:37:49.714Z,19.50
2018-09-10T16:40:18.519Z,19.50
2018-09-10T16:42:47.162Z,19.50
2018-09-10T16:45:15.955Z,19.50
2018-09-10T16:47:44.503Z,19.50
2018-09-10T16:50:13.343Z,19.50
2018-09-10T16:52:41.998Z,19.50
2018-09-10T16:55:10.536Z,19.40
2018-09-10T16:57:39.309Z,19.40
2018-09-10T17:00:07.917Z,19.40
2018-09-10T17:02:36.506Z,19.40
2018-09-10T17:05:05.314Z,19.40
2018-09-10T17:07:33.897Z,19.40
2018-09-10T17:10:02.498Z,19.40
2018-09-10T17:12:30.989Z,19.40
2018-09-10T17:14:59.662Z,19.40
2018-09-10T17:17:28.376Z,19.30
2018-09-10T17:19:57.148Z,19.30
2018-09-10T17:22:25.887Z,19.30
2018-09-10T17:24:54.564Z,19.30
2018-09-10T17:27:23.319Z,19.30
2018-09-10T17:29:51.911Z,19.30
2018-09-10T17:32:20.459Z,19.30
2018-09-10T17:34:49.124Z,19.20
2018-09-10T17:37:17.729Z,19.20
2018-09-10T17:39:46.524Z,19.20
2018-09-10T17:42:15.116Z,19.20
2018-09-10T17:44:43.743Z,19.20
2018-09-10T17:47:12.521Z,19.10
2018-09-10T17:49:41.052Z,19.10
2018-09-10T17:52:09.816Z,19.10
2018-09-10T17:54:38.489Z,19.10
2018-09-10T17:57:07.051Z,19.00
2018-09-10T17:59:35.699Z,19.00
2018-09-10T18:02:04.274Z,19.00
2018-09-10T18:04:32.908Z,19.00
2018-09-10T18:07:01.447Z,18.90
2018-09-10T18:09:30.176Z,18.90
2018-09-10T18:11:59.073Z,18.90
2018-09-10T18:14:27.879Z,18.80
2018-09-10T18:16:56.464Z,18.80
2018-09-10T18:19:24.983Z,18.80
2018-09-10T18:21:53.668Z,18.80
2018-09-10T18:24:22.259Z,18.80
2018-09-10T18:26:50.788Z,18.70
2018-09-10T18:29:19.365Z,18.70
2018-09-10T18:31:48.064Z,18.70
2018-09-10T18:34:16.761Z,18.70
2018-09-10T18:36:45.601Z,18.70
2018-09-10T18:39:14.124Z,18.70
2018-09-10T18:41:42.760Z,18.70
2018-09-10T18:44:11.475Z,18.60
2018-09-10T18:46:40.116Z,18.60
2018-09-10T18:49:08.850Z,18.60
2018-09-10T18:51:37.502Z,18.60
2018-09-10T18:54:06.347Z,18.60
2018-09-10T18:56:34.929Z,18.60
2018-09-10T18:59:03.520Z,18.60
2018-09-10T19:01:32.283Z,18.60
2018-09-10T19:04:00.764Z,18.60
2018-09-10T19:06:29.497Z,18.60
2018-09-10T19:08:58.217Z,18.50
2018-09-10T19:11:26.797Z,18.50
2018-09-10T19:13:55.672Z,18.50
2018-09-10T19:16:24.324Z,18.50
2018-09-10T19:18:52.904Z,18.50
2018-09-10T19:21:21.512Z,18.40
2018-09-10T19:23:50.319Z,18.40
2018-09-10T19:26:18.906Z,18.40
2018-09-10T19:28:47.593Z,18.40
2018-09-10T19:31:16.192Z,18.40
2018-09-10T19:33:44.779Z,18.40
2018-09-10T19:36:13.404Z,18.40
2018-09-10T19:38:42.195Z,18.30
2018-09-10T19:41:10.800Z,18.30
2018-09-10T19:43:39.454Z,18.30
2018-09-10T19:46:07.999Z,18.20
2018-09-10T19:48:36.605Z,18.20
2018-09-10T19:51:05.268Z,18.20
2018-09-10T19:53:33.949Z,18.10
2018-09-10T19:56:02.483Z,18.10
2018-09-10T19:58:31.058Z,18.10
2018-09-10T20:00:59.620Z,18.10
2018-09-10T20:03:28.161Z,18.00
2018-09-10T20:05:56.804Z,18.00
2018-09-10T20:08:25.343Z,18.00
2018-09-10T20:10:53.908Z,18.00
2018-09-10T20:13:22.466Z,18.00
2018-09-10T20:15:51.697Z,18.00
2018-09-10T20:18:20.418Z,18.00
2018-09-10T20:20:48.916Z,17.90
2018-09-10T20:23:17.510Z,18.00
2018-09-10T20:25:46.067Z,18.00
2018-09-10T20:28:14.592Z,18.00
2018-09-10T20:30:43.370Z,18.00
2018-09-10T20:33:11.900Z,18.00
2018-09-10T20:35:40.467Z,18.00
2018-09-10T20:38:09.083Z,17.90
2018-09-10T20:40:37.630Z,17.90
2018-09-10T20:43:06.564Z,17.90
2018-09-10T20:45:35.205Z,17.90
2018-09-10T20:48:03.762Z,17.90
2018-09-10T20:50:32.416Z,17.90
2018-09-10T20:53:01.146Z,17.90
2018-09-10T20:55:29.899Z,17.90
2018-09-10T20:57:58.391Z,17.90
2018-09-10T21:00:27.020Z,17.90
2018-09-10T21:02:55.562Z,17.80
2018-09-10T21:05:24.464Z,17.80
2018-09-10T21:07:53.139Z,17.80
2018-09-10T21:10:21.731Z,17.80
2018-09-10T21:12:50.379Z,17.80
2018-09-10T21:15:19.173Z,17.80
2018-09-10T21:17:47.786Z,17.80
2018-09-10T21:20:16.498Z,17.70
2018-09-10T21:22:45.067Z,17.80
2018-09-10T21:25:13.526Z,17.70
2018-09-10T21:27:42.240Z,17.80
2018-09-10T21:30:10.909Z,17.80
2018-09-10T21:32:39.414Z,17.80
2018-09-10T21:35:07.972Z,17.80
2018-09-10T21:37:36.794Z,17.80
2018-09-10T21:40:05.748Z,17.80
2018-09-10T21:42:34.243Z,17.80
2018-09-10T21:45:02.989Z,17.80
2018-09-10T21:47:31.846Z,17.70
2018-09-10T21:50:00.503Z,17.70
2018-09-10T21:52:29.094Z,17.70
2018-09-10T21:54:57.514Z,17.70
2018-09-10T21:57:26.197Z,17.70
2018-09-10T21:59:54.851Z,17.70
2018-09-10T22:02:23.490Z,17.60
2018-09-10T22:04:51.996Z,17.60
2018-09-10T22:07:20.506Z,17.60
2018-09-10T22:09:49.007Z,17.50
2018-09-10T22:12:17.821Z,17.50
2018-09-10T22:14:46.386Z,17.50
2018-09-10T22:17:14.944Z,17.50
2018-09-10T22:19:43.505Z,17.50
2018-09-10T22:22:12.034Z,17.50
2018-09-10T22:24:40.681Z,17.50
2018-09-10T22:27:09.224Z,17.50
2018-09-10T22:29:37.703Z,17.50
2018-09-10T22:32:06.215Z,17.50
2018-09-10T22:34:34.891Z,17.50
2018-09-10T22:37:03.418Z,17.50
2018-09-10T22:39:31.979Z,17.50
2018-09-10T22:42:00.472Z,17.50
2018-09-10T22:44:29.191Z,17.50
2018-09-10T22:46:58.180Z,17.60
2018-09-10T22:49:26.647Z,17.60
2018-09-10T22:51:55.399Z,17.60
2018-09-10T22:54:23.910Z,17.60
2018-09-10T22:56:52.450Z,17.60
2018-09-10T22:59:20.951Z,17.60
2018-09-10T23:01:49.490Z,17.60
2018-09-10T23:04:17.974Z,17.60
2018-09-10T23:06:46.546Z,17.60
2018-09-10T23:09:15.008Z,17.60
2018-09-10T23:11:43.492Z,17.60
2018-09-10T23:14:12.263Z,17.60
2018-09-10T23:16:40.774Z,17.60
2018-09-10T23:19:09.358Z,17.60
2018-09-10T23:21:38.008Z,17.60
2018-09-10T23:24:06.618Z,17.60
2018-09-10T23:26:35.143Z,17.60
2018-09-10T23:29:03.910Z,17.60
2018-09-10T23:31:32.435Z,17.60
2018-09-10T23:34:00.906Z,17.60
2018-09-10T23:36:29.482Z,17.60
2018-09-10T23:38:57.978Z,17.60
2018-09-10T23:41:26.438Z,17.60
2018-09-10T23:43:54.890Z,17.60
2018-09-10T23:46:23.411Z,17.60
2018-09-10T23:48:51.930Z,17.60
2018-09-10T23:51:20.474Z,17.60
2018-09-10T23:53:49.106Z,17.60
2018-09-10T23:56:17.785Z,17.60
2018-09-10T23:58:46.425Z,17.60
